sensor_id;sensor_type;location;lat;lon;timestamp;P1;durP1;ratioP1;P2;durP2;ratioP2
60225;SDS011;46090;48.436;11.410;2022-12-10T00:00:43;5.00;;;1.30;;
60225;SDS011;46090;48.436;11.410;2022-12-10T00:03:09;3.67;;;1.05;;
60225;SDS011;46090;48.436;11.410;2022-12-10T00:05:37;5.53;;;1.10;;
60225;SDS011;46090;48.436;11.410;2022-12-10T00:08:04;4.60;;;1.33;;
60225;SDS011;46090;48.436;11.410;2022-12-10T00:10:31;5.25;;;1.10;;
60225;SDS011;46090;48.436;11.410;2022-12-10T00:12:58;3.53;;;1.08;;
60225;SDS011;46090;48.436;11.410;2022-12-10T00:15:24;4.22;;;1.10;;
60225;SDS011;46090;48.436;11.410;2022-12-10T00:17:51;5.53;;;1.40;;
60225;SDS011;46090;48.436;11.410;2022-12-10T00:20:17;7.07;;;1.00;;
60225;SDS011;46090;48.436;11.410;2022-12-10T00:22:44;4.90;;;0.90;;
60225;SDS011;46090;48.436;11.410;2022-12-10T00:25:12;3.85;;;1.30;;
60225;SDS011;46090;48.436;11.410;2022-12-10T00:27:38;3.53;;;1.10;;
60225;SDS011;46090;48.436;11.410;2022-12-10T00:30:06;6.15;;;1.20;;
60225;SDS011;46090;48.436;11.410;2022-12-10T00:32:34;3.75;;;1.00;;
60225;SDS011;46090;48.436;11.410;2022-12-10T00:35:00;3.53;;;1.23;;
60225;SDS011;46090;48.436;11.410;2022-12-10T00:37:29;5.85;;;1.10;;
60225;SDS011;46090;48.436;11.410;2022-12-10T00:39:55;4.70;;;1.17;;
60225;SDS011;46090;48.436;11.410;2022-12-10T00:42:22;6.25;;;1.13;;
60225;SDS011;46090;48.436;11.410;2022-12-10T00:44:49;4.57;;;0.90;;
60225;SDS011;46090;48.436;11.410;2022-12-10T00:47:16;3.85;;;1.10;;
60225;SDS011;46090;48.436;11.410;2022-12-10T00:49:43;2.55;;;0.80;;
60225;SDS011;46090;48.436;11.410;2022-12-10T00:52:10;4.93;;;1.10;;
60225;SDS011;46090;48.436;11.410;2022-12-10T00:54:36;2.72;;;0.90;;
60225;SDS011;46090;48.436;11.410;2022-12-10T00:57:03;4.35;;;1.00;;
60225;SDS011;46090;48.436;11.410;2022-12-10T00:59:30;3.70;;;1.08;;
60225;SDS011;46090;48.436;11.410;2022-12-10T01:01:57;3.67;;;0.90;;
60225;SDS011;46090;48.436;11.410;2022-12-10T01:04:24;3.28;;;0.75;;
60225;SDS011;46090;48.436;11.410;2022-12-10T01:06:51;4.38;;;1.27;;
60225;SDS011;46090;48.436;11.410;2022-12-10T01:09:20;2.22;;;0.82;;
60225;SDS011;46090;48.436;11.410;2022-12-10T01:11:53;4.03;;;1.05;;
60225;SDS011;46090;48.436;11.410;2022-12-10T01:14:26;4.78;;;1.00;;
60225;SDS011;46090;48.436;11.410;2022-12-10T01:16:55;5.50;;;1.10;;
60225;SDS011;46090;48.436;11.410;2022-12-10T01:19:24;2.70;;;0.80;;
60225;SDS011;46090;48.436;11.410;2022-12-10T01:21:51;4.13;;;0.98;;
60225;SDS011;46090;48.436;11.410;2022-12-10T01:24:20;3.50;;;1.02;;
60225;SDS011;46090;48.436;11.410;2022-12-10T01:26:47;2.50;;;0.90;;
60225;SDS011;46090;48.436;11.410;2022-12-10T01:29:14;4.00;;;0.80;;
60225;SDS011;46090;48.436;11.410;2022-12-10T01:31:41;3.35;;;0.80;;
60225;SDS011;46090;48.436;11.410;2022-12-10T01:34:09;3.95;;;0.90;;
60225;SDS011;46090;48.436;11.410;2022-12-10T01:36:39;3.15;;;0.80;;
60225;SDS011;46090;48.436;11.410;2022-12-10T01:39:11;2.80;;;0.88;;
60225;SDS011;46090;48.436;11.410;2022-12-10T01:41:40;3.40;;;0.70;;
60225;SDS011;46090;48.436;11.410;2022-12-10T01:46:59;3.83;;;0.80;;
60225;SDS011;46090;48.436;11.410;2022-12-10T01:49:26;2.60;;;0.65;;
60225;SDS011;46090;48.436;11.410;2022-12-10T01:51:54;4.32;;;0.70;;
60225;SDS011;46090;48.436;11.410;2022-12-10T01:54:35;3.65;;;1.05;;
60225;SDS011;46090;48.436;11.410;2022-12-10T01:59:35;3.70;;;0.93;;
60225;SDS011;46090;48.436;11.410;2022-12-10T02:02:21;5.18;;;1.15;;
60225;SDS011;46090;48.436;11.410;2022-12-10T02:04:55;5.57;;;0.85;;
60225;SDS011;46090;48.436;11.410;2022-12-10T02:10:43;4.60;;;0.98;;
60225;SDS011;46090;48.436;11.410;2022-12-10T02:13:22;5.00;;;1.00;;
60225;SDS011;46090;48.436;11.410;2022-12-10T02:15:57;6.25;;;1.40;;
60225;SDS011;46090;48.436;11.410;2022-12-10T02:18:30;2.78;;;0.80;;
60225;SDS011;46090;48.436;11.410;2022-12-10T02:21:02;4.45;;;1.20;;
60225;SDS011;46090;48.436;11.410;2022-12-10T02:23:39;5.28;;;1.17;;
60225;SDS011;46090;48.436;11.410;2022-12-10T02:26:13;8.02;;;1.30;;
60225;SDS011;46090;48.436;11.410;2022-12-10T02:31:17;7.78;;;1.30;;
60225;SDS011;46090;48.436;11.410;2022-12-10T02:33:48;4.93;;;1.35;;
60225;SDS011;46090;48.436;11.410;2022-12-10T02:36:16;5.97;;;1.42;;
60225;SDS011;46090;48.436;11.410;2022-12-10T02:38:49;5.97;;;1.50;;
60225;SDS011;46090;48.436;11.410;2022-12-10T02:41:22;6.53;;;1.10;;
60225;SDS011;46090;48.436;11.410;2022-12-10T02:43:53;4.32;;;1.10;;
60225;SDS011;46090;48.436;11.410;2022-12-10T02:46:22;4.82;;;1.30;;
60225;SDS011;46090;48.436;11.410;2022-12-10T02:48:50;6.60;;;1.05;;
60225;SDS011;46090;48.436;11.410;2022-12-10T02:51:17;5.22;;;1.10;;
60225;SDS011;46090;48.436;11.410;2022-12-10T02:53:44;6.28;;;1.63;;
60225;SDS011;46090;48.436;11.410;2022-12-10T03:04:43;4.13;;;1.15;;
60225;SDS011;46090;48.436;11.410;2022-12-10T03:06:52;5.68;;;1.10;;
60225;SDS011;46090;48.436;11.410;2022-12-10T03:09:24;6.30;;;1.02;;
60225;SDS011;46090;48.436;11.410;2022-12-10T03:12:07;6.70;;;1.20;;
60225;SDS011;46090;48.436;11.410;2022-12-10T03:14:41;3.75;;;1.00;;
60225;SDS011;46090;48.436;11.410;2022-12-10T03:17:08;3.05;;;1.05;;
60225;SDS011;46090;48.436;11.410;2022-12-10T03:19:36;2.65;;;0.80;;
60225;SDS011;46090;48.436;11.410;2022-12-10T03:22:09;4.70;;;1.17;;
60225;SDS011;46090;48.436;11.410;2022-12-10T03:24:38;3.83;;;1.00;;
60225;SDS011;46090;48.436;11.410;2022-12-10T03:27:07;4.43;;;1.10;;
60225;SDS011;46090;48.436;11.410;2022-12-10T03:29:36;4.35;;;1.00;;
60225;SDS011;46090;48.436;11.410;2022-12-10T03:32:06;5.55;;;1.02;;
60225;SDS011;46090;48.436;11.410;2022-12-10T03:34:33;4.22;;;1.00;;
60225;SDS011;46090;48.436;11.410;2022-12-10T03:37:01;3.00;;;0.98;;
60225;SDS011;46090;48.436;11.410;2022-12-10T03:39:28;5.93;;;1.20;;
60225;SDS011;46090;48.436;11.410;2022-12-10T03:41:55;5.18;;;1.00;;
60225;SDS011;46090;48.436;11.410;2022-12-10T03:44:31;3.20;;;0.80;;
60225;SDS011;46090;48.436;11.410;2022-12-10T03:47:02;5.60;;;1.08;;
60225;SDS011;46090;48.436;11.410;2022-12-10T03:49:33;4.07;;;0.90;;
60225;SDS011;46090;48.436;11.410;2022-12-10T03:52:00;3.60;;;0.90;;
60225;SDS011;46090;48.436;11.410;2022-12-10T03:54:26;4.07;;;1.02;;
60225;SDS011;46090;48.436;11.410;2022-12-10T03:56:53;4.72;;;1.13;;
60225;SDS011;46090;48.436;11.410;2022-12-10T03:59:20;4.50;;;1.00;;
60225;SDS011;46090;48.436;11.410;2022-12-10T04:01:47;4.63;;;1.02;;
60225;SDS011;46090;48.436;11.410;2022-12-10T04:04:14;2.97;;;0.70;;
60225;SDS011;46090;48.436;11.410;2022-12-10T04:06:41;4.13;;;0.70;;
60225;SDS011;46090;48.436;11.410;2022-12-10T04:09:11;4.43;;;1.23;;
60225;SDS011;46090;48.436;11.410;2022-12-10T04:11:38;3.10;;;0.90;;
60225;SDS011;46090;48.436;11.410;2022-12-10T04:14:08;4.07;;;1.08;;
60225;SDS011;46090;48.436;11.410;2022-12-10T04:16:54;5.35;;;0.93;;
60225;SDS011;46090;48.436;11.410;2022-12-10T04:19:20;3.92;;;0.85;;
60225;SDS011;46090;48.436;11.410;2022-12-10T04:21:47;2.72;;;0.80;;
60225;SDS011;46090;48.436;11.410;2022-12-10T04:24:34;4.22;;;1.00;;
60225;SDS011;46090;48.436;11.410;2022-12-10T04:27:21;4.13;;;1.35;;
60225;SDS011;46090;48.436;11.410;2022-12-10T04:29:51;4.03;;;0.70;;
60225;SDS011;46090;48.436;11.410;2022-12-10T04:32:18;3.13;;;0.70;;
60225;SDS011;46090;48.436;11.410;2022-12-10T04:34:46;3.53;;;0.93;;
60225;SDS011;46090;48.436;11.410;2022-12-10T04:37:12;4.50;;;0.98;;
60225;SDS011;46090;48.436;11.410;2022-12-10T04:39:40;4.93;;;0.95;;
60225;SDS011;46090;48.436;11.410;2022-12-10T04:42:07;5.25;;;0.95;;
60225;SDS011;46090;48.436;11.410;2022-12-10T04:44:34;3.72;;;1.20;;
60225;SDS011;46090;48.436;11.410;2022-12-10T04:47:02;4.05;;;1.10;;
60225;SDS011;46090;48.436;11.410;2022-12-10T04:49:30;3.63;;;1.00;;
60225;SDS011;46090;48.436;11.410;2022-12-10T04:51:57;4.78;;;1.05;;
60225;SDS011;46090;48.436;11.410;2022-12-10T04:54:24;5.00;;;0.98;;
60225;SDS011;46090;48.436;11.410;2022-12-10T04:56:52;3.35;;;0.90;;
60225;SDS011;46090;48.436;11.410;2022-12-10T04:59:20;4.40;;;0.98;;
60225;SDS011;46090;48.436;11.410;2022-12-10T05:01:47;3.92;;;1.27;;
60225;SDS011;46090;48.436;11.410;2022-12-10T05:04:15;4.10;;;1.02;;
60225;SDS011;46090;48.436;11.410;2022-12-10T05:06:43;3.63;;;1.27;;
60225;SDS011;46090;48.436;11.410;2022-12-10T05:09:11;4.30;;;1.70;;
60225;SDS011;46090;48.436;11.410;2022-12-10T05:11:38;5.10;;;1.67;;
60225;SDS011;46090;48.436;11.410;2022-12-10T05:14:08;6.15;;;1.23;;
60225;SDS011;46090;48.436;11.410;2022-12-10T05:16:36;4.65;;;1.38;;
60225;SDS011;46090;48.436;11.410;2022-12-10T05:19:03;5.72;;;1.83;;
60225;SDS011;46090;48.436;11.410;2022-12-10T05:21:30;5.47;;;1.60;;
60225;SDS011;46090;48.436;11.410;2022-12-10T05:24:16;4.32;;;1.50;;
60225;SDS011;46090;48.436;11.410;2022-12-10T05:26:44;5.10;;;2.03;;
60225;SDS011;46090;48.436;11.410;2022-12-10T05:29:13;5.65;;;1.52;;
60225;SDS011;46090;48.436;11.410;2022-12-10T05:31:40;5.57;;;1.48;;
60225;SDS011;46090;48.436;11.410;2022-12-10T05:34:08;6.82;;;2.35;;
60225;SDS011;46090;48.436;11.410;2022-12-10T05:36:40;7.88;;;1.95;;
60225;SDS011;46090;48.436;11.410;2022-12-10T05:39:07;4.57;;;1.70;;
60225;SDS011;46090;48.436;11.410;2022-12-10T05:41:36;10.38;;;1.83;;
60225;SDS011;46090;48.436;11.410;2022-12-10T05:44:03;4.93;;;1.65;;
60225;SDS011;46090;48.436;11.410;2022-12-10T05:46:32;5.20;;;1.88;;
60225;SDS011;46090;48.436;11.410;2022-12-10T05:49:00;7.00;;;2.20;;
60225;SDS011;46090;48.436;11.410;2022-12-10T05:51:29;7.88;;;2.22;;
60225;SDS011;46090;48.436;11.410;2022-12-10T05:53:57;9.77;;;2.67;;
60225;SDS011;46090;48.436;11.410;2022-12-10T05:56:24;6.25;;;1.73;;
60225;SDS011;46090;48.436;11.410;2022-12-10T05:58:53;7.20;;;2.72;;
60225;SDS011;46090;48.436;11.410;2022-12-10T06:01:22;10.82;;;3.70;;
60225;SDS011;46090;48.436;11.410;2022-12-10T06:03:50;8.45;;;4.60;;
60225;SDS011;46090;48.436;11.410;2022-12-10T06:06:20;10.65;;;5.07;;
60225;SDS011;46090;48.436;11.410;2022-12-10T06:08:51;9.93;;;5.32;;
60225;SDS011;46090;48.436;11.410;2022-12-10T06:11:18;11.93;;;5.88;;
60225;SDS011;46090;48.436;11.410;2022-12-10T06:13:47;17.77;;;7.20;;
60225;SDS011;46090;48.436;11.410;2022-12-10T06:16:21;14.45;;;7.60;;
60225;SDS011;46090;48.436;11.410;2022-12-10T06:18:48;13.75;;;7.68;;
60225;SDS011;46090;48.436;11.410;2022-12-10T06:21:16;16.52;;;9.10;;
60225;SDS011;46090;48.436;11.410;2022-12-10T06:23:43;18.80;;;9.80;;
60225;SDS011;46090;48.436;11.410;2022-12-10T06:26:11;20.33;;;10.57;;
60225;SDS011;46090;48.436;11.410;2022-12-10T06:28:39;15.88;;;9.15;;
60225;SDS011;46090;48.436;11.410;2022-12-10T06:31:07;17.88;;;8.05;;
60225;SDS011;46090;48.436;11.410;2022-12-10T06:33:35;12.90;;;7.53;;
60225;SDS011;46090;48.436;11.410;2022-12-10T06:36:05;13.20;;;7.18;;
60225;SDS011;46090;48.436;11.410;2022-12-10T06:38:34;13.52;;;7.47;;
60225;SDS011;46090;48.436;11.410;2022-12-10T06:41:03;12.90;;;7.35;;
60225;SDS011;46090;48.436;11.410;2022-12-10T06:43:31;13.05;;;7.32;;
60225;SDS011;46090;48.436;11.410;2022-12-10T06:45:57;13.05;;;6.78;;
60225;SDS011;46090;48.436;11.410;2022-12-10T06:48:24;12.07;;;6.28;;
60225;SDS011;46090;48.436;11.410;2022-12-10T06:50:51;13.52;;;6.47;;
60225;SDS011;46090;48.436;11.410;2022-12-10T06:53:18;12.85;;;5.30;;
60225;SDS011;46090;48.436;11.410;2022-12-10T06:55:44;16.50;;;5.32;;
60225;SDS011;46090;48.436;11.410;2022-12-10T06:58:11;12.23;;;5.13;;
60225;SDS011;46090;48.436;11.410;2022-12-10T07:00:38;10.98;;;4.47;;
60225;SDS011;46090;48.436;11.410;2022-12-10T07:03:04;10.57;;;4.45;;
60225;SDS011;46090;48.436;11.410;2022-12-10T07:05:31;10.38;;;3.80;;
60225;SDS011;46090;48.436;11.410;2022-12-10T07:07:58;9.15;;;3.72;;
60225;SDS011;46090;48.436;11.410;2022-12-10T07:10:25;10.70;;;3.70;;
60225;SDS011;46090;48.436;11.410;2022-12-10T07:12:51;9.75;;;3.50;;
60225;SDS011;46090;48.436;11.410;2022-12-10T07:15:18;9.70;;;3.50;;
60225;SDS011;46090;48.436;11.410;2022-12-10T07:17:45;6.10;;;2.78;;
60225;SDS011;46090;48.436;11.410;2022-12-10T07:20:12;7.70;;;3.05;;
60225;SDS011;46090;48.436;11.410;2022-12-10T07:22:38;8.77;;;3.00;;
60225;SDS011;46090;48.436;11.410;2022-12-10T07:25:05;5.05;;;2.35;;
60225;SDS011;46090;48.436;11.410;2022-12-10T07:27:32;7.55;;;2.47;;
60225;SDS011;46090;48.436;11.410;2022-12-10T07:29:58;11.82;;;3.40;;
60225;SDS011;46090;48.436;11.410;2022-12-10T07:32:26;9.88;;;3.05;;
60225;SDS011;46090;48.436;11.410;2022-12-10T07:34:53;11.93;;;3.10;;
60225;SDS011;46090;48.436;11.410;2022-12-10T07:37:20;14.57;;;3.03;;
60225;SDS011;46090;48.436;11.410;2022-12-10T07:39:47;10.18;;;3.00;;
60225;SDS011;46090;48.436;11.410;2022-12-10T07:42:14;7.70;;;2.80;;
60225;SDS011;46090;48.436;11.410;2022-12-10T07:44:40;11.73;;;3.50;;
60225;SDS011;46090;48.436;11.410;2022-12-10T07:47:15;11.73;;;3.20;;
60225;SDS011;46090;48.436;11.410;2022-12-10T07:49:41;10.07;;;5.15;;
60225;SDS011;46090;48.436;11.410;2022-12-10T07:52:08;10.43;;;3.42;;
60225;SDS011;46090;48.436;11.410;2022-12-10T07:54:35;9.02;;;3.42;;
60225;SDS011;46090;48.436;11.410;2022-12-10T07:57:02;18.80;;;3.65;;
60225;SDS011;46090;48.436;11.410;2022-12-10T07:59:29;14.68;;;3.45;;
60225;SDS011;46090;48.436;11.410;2022-12-10T08:01:57;18.55;;;3.63;;
60225;SDS011;46090;48.436;11.410;2022-12-10T08:04:31;12.95;;;3.60;;
60225;SDS011;46090;48.436;11.410;2022-12-10T08:06:57;9.07;;;2.97;;
60225;SDS011;46090;48.436;11.410;2022-12-10T08:09:24;13.73;;;2.95;;
60225;SDS011;46090;48.436;11.410;2022-12-10T08:11:52;8.65;;;2.75;;
60225;SDS011;46090;48.436;11.410;2022-12-10T08:14:19;7.03;;;2.53;;
60225;SDS011;46090;48.436;11.410;2022-12-10T08:16:45;5.90;;;2.60;;
60225;SDS011;46090;48.436;11.410;2022-12-10T08:19:15;8.52;;;2.33;;
60225;SDS011;46090;48.436;11.410;2022-12-10T08:21:48;7.70;;;2.25;;
60225;SDS011;46090;48.436;11.410;2022-12-10T08:24:15;7.00;;;2.25;;
60225;SDS011;46090;48.436;11.410;2022-12-10T08:26:42;15.85;;;2.67;;
60225;SDS011;46090;48.436;11.410;2022-12-10T08:29:09;7.45;;;2.25;;
60225;SDS011;46090;48.436;11.410;2022-12-10T08:31:35;8.57;;;2.25;;
60225;SDS011;46090;48.436;11.410;2022-12-10T08:34:04;7.97;;;1.95;;
60225;SDS011;46090;48.436;11.410;2022-12-10T08:36:33;5.55;;;2.00;;
60225;SDS011;46090;48.436;11.410;2022-12-10T08:38:59;11.63;;;2.47;;
60225;SDS011;46090;48.436;11.410;2022-12-10T08:41:26;5.80;;;1.90;;
60225;SDS011;46090;48.436;11.410;2022-12-10T08:43:53;10.95;;;2.20;;
60225;SDS011;46090;48.436;11.410;2022-12-10T08:46:21;6.22;;;1.70;;
60225;SDS011;46090;48.436;11.410;2022-12-10T08:48:49;7.78;;;2.00;;
60225;SDS011;46090;48.436;11.410;2022-12-10T08:51:16;8.38;;;2.65;;
60225;SDS011;46090;48.436;11.410;2022-12-10T08:53:45;9.43;;;1.67;;
60225;SDS011;46090;48.436;11.410;2022-12-10T08:56:12;6.53;;;2.00;;
60225;SDS011;46090;48.436;11.410;2022-12-10T08:58:38;7.82;;;2.08;;
60225;SDS011;46090;48.436;11.410;2022-12-10T09:01:10;6.32;;;1.95;;
60225;SDS011;46090;48.436;11.410;2022-12-10T09:03:41;6.97;;;1.90;;
60225;SDS011;46090;48.436;11.410;2022-12-10T09:06:09;5.82;;;1.95;;
60225;SDS011;46090;48.436;11.410;2022-12-10T09:08:37;5.60;;;1.75;;
60225;SDS011;46090;48.436;11.410;2022-12-10T09:11:07;6.25;;;1.80;;
60225;SDS011;46090;48.436;11.410;2022-12-10T09:13:40;4.13;;;1.40;;
60225;SDS011;46090;48.436;11.410;2022-12-10T09:16:07;3.67;;;1.40;;
60225;SDS011;46090;48.436;11.410;2022-12-10T09:18:33;6.03;;;1.83;;
60225;SDS011;46090;48.436;11.410;2022-12-10T09:21:03;9.60;;;2.00;;
60225;SDS011;46090;48.436;11.410;2022-12-10T09:23:31;6.38;;;1.75;;
60225;SDS011;46090;48.436;11.410;2022-12-10T09:25:57;7.88;;;1.48;;
60225;SDS011;46090;48.436;11.410;2022-12-10T09:28:24;5.72;;;1.77;;
60225;SDS011;46090;48.436;11.410;2022-12-10T09:30:57;9.73;;;1.98;;
60225;SDS011;46090;48.436;11.410;2022-12-10T09:33:25;13.40;;;1.63;;
60225;SDS011;46090;48.436;11.410;2022-12-10T09:35:52;5.57;;;1.30;;
60225;SDS011;46090;48.436;11.410;2022-12-10T09:38:19;5.57;;;1.50;;
60225;SDS011;46090;48.436;11.410;2022-12-10T09:40:50;4.50;;;1.50;;
60225;SDS011;46090;48.436;11.410;2022-12-10T09:46:22;6.25;;;1.90;;
60225;SDS011;46090;48.436;11.410;2022-12-10T09:51:53;3.90;;;1.48;;
60225;SDS011;46090;48.436;11.410;2022-12-10T09:54:25;4.70;;;1.00;;
60225;SDS011;46090;48.436;11.410;2022-12-10T09:56:54;6.40;;;1.27;;
60225;SDS011;46090;48.436;11.410;2022-12-10T09:59:23;7.72;;;2.00;;
60225;SDS011;46090;48.436;11.410;2022-12-10T10:04:58;6.25;;;1.48;;
60225;SDS011;46090;48.436;11.410;2022-12-10T10:07:27;6.53;;;1.88;;
60225;SDS011;46090;48.436;11.410;2022-12-10T10:09:59;5.60;;;1.50;;
60225;SDS011;46090;48.436;11.410;2022-12-10T10:12:28;6.40;;;1.40;;
60225;SDS011;46090;48.436;11.410;2022-12-10T10:14:57;5.18;;;1.60;;
60225;SDS011;46090;48.436;11.410;2022-12-10T10:17:34;6.75;;;1.73;;
60225;SDS011;46090;48.436;11.410;2022-12-10T10:20:03;7.47;;;1.50;;
60225;SDS011;46090;48.436;11.410;2022-12-10T10:22:30;6.55;;;1.50;;
60225;SDS011;46090;48.436;11.410;2022-12-10T10:24:57;9.68;;;1.92;;
60225;SDS011;46090;48.436;11.410;2022-12-10T10:27:29;6.18;;;1.60;;
60225;SDS011;46090;48.436;11.410;2022-12-10T10:29:57;5.82;;;1.70;;
60225;SDS011;46090;48.436;11.410;2022-12-10T10:32:27;7.10;;;1.52;;
60225;SDS011;46090;48.436;11.410;2022-12-10T10:35:23;4.07;;;1.57;;
60225;SDS011;46090;48.436;11.410;2022-12-10T10:38:00;7.95;;;1.35;;
60225;SDS011;46090;48.436;11.410;2022-12-10T10:40:55;7.80;;;1.60;;
60225;SDS011;46090;48.436;11.410;2022-12-10T10:43:27;7.18;;;2.00;;
60225;SDS011;46090;48.436;11.410;2022-12-10T10:45:58;6.50;;;1.60;;
60225;SDS011;46090;48.436;11.410;2022-12-10T10:48:28;5.93;;;1.98;;
60225;SDS011;46090;48.436;11.410;2022-12-10T10:51:06;6.32;;;1.67;;
60225;SDS011;46090;48.436;11.410;2022-12-10T10:53:43;7.00;;;1.52;;
60225;SDS011;46090;48.436;11.410;2022-12-10T10:58:49;6.30;;;1.48;;
60225;SDS011;46090;48.436;11.410;2022-12-10T11:01:18;5.88;;;1.73;;
60225;SDS011;46090;48.436;11.410;2022-12-10T11:04:03;6.75;;;1.65;;
60225;SDS011;46090;48.436;11.410;2022-12-10T11:06:31;7.93;;;1.45;;
60225;SDS011;46090;48.436;11.410;2022-12-10T11:08:57;6.93;;;1.60;;
60225;SDS011;46090;48.436;11.410;2022-12-10T11:11:31;8.55;;;1.90;;
60225;SDS011;46090;48.436;11.410;2022-12-10T11:14:46;7.45;;;1.30;;
60225;SDS011;46090;48.436;11.410;2022-12-10T11:24:51;6.70;;;1.50;;
60225;SDS011;46090;48.436;11.410;2022-12-10T11:30:20;6.80;;;1.00;;
60225;SDS011;46090;48.436;11.410;2022-12-10T11:35:56;7.45;;;1.33;;
60225;SDS011;46090;48.436;11.410;2022-12-10T11:46:56;5.82;;;1.45;;
60225;SDS011;46090;48.436;11.410;2022-12-10T11:49:31;8.85;;;1.88;;
60225;SDS011;46090;48.436;11.410;2022-12-10T11:52:16;6.90;;;1.25;;
60225;SDS011;46090;48.436;11.410;2022-12-10T11:55:17;6.70;;;1.42;;
60225;SDS011;46090;48.436;11.410;2022-12-10T11:58:14;7.47;;;2.58;;
60225;SDS011;46090;48.436;11.410;2022-12-10T12:00:51;6.40;;;2.00;;
60225;SDS011;46090;48.436;11.410;2022-12-10T12:03:38;11.05;;;3.10;;
60225;SDS011;46090;48.436;11.410;2022-12-10T12:06:50;22.60;;;2.70;;
60225;SDS011;46090;48.436;11.410;2022-12-10T12:18:04;9.63;;;2.13;;
60225;SDS011;46090;48.436;11.410;2022-12-10T12:20:37;7.47;;;1.92;;
60225;SDS011;46090;48.436;11.410;2022-12-10T12:23:19;9.82;;;2.22;;
60225;SDS011;46090;48.436;11.410;2022-12-10T12:25:51;11.23;;;2.40;;
60225;SDS011;46090;48.436;11.410;2022-12-10T12:31:01;12.48;;;2.92;;
60225;SDS011;46090;48.436;11.410;2022-12-10T12:33:42;11.48;;;2.45;;
60225;SDS011;46090;48.436;11.410;2022-12-10T12:36:19;9.88;;;2.15;;
60225;SDS011;46090;48.436;11.410;2022-12-10T12:38:53;12.38;;;2.10;;
60225;SDS011;46090;48.436;11.410;2022-12-10T12:44:08;10.85;;;2.75;;
60225;SDS011;46090;48.436;11.410;2022-12-10T12:46:42;9.27;;;2.03;;
60225;SDS011;46090;48.436;11.410;2022-12-10T12:51:51;11.10;;;2.15;;
60225;SDS011;46090;48.436;11.410;2022-12-10T12:54:22;11.95;;;2.63;;
60225;SDS011;46090;48.436;11.410;2022-12-10T12:57:11;9.57;;;2.33;;
60225;SDS011;46090;48.436;11.410;2022-12-10T13:02:20;22.08;;;2.67;;
60225;SDS011;46090;48.436;11.410;2022-12-10T13:04:48;16.40;;;4.30;;
60225;SDS011;46090;48.436;11.410;2022-12-10T13:12:44;11.88;;;2.78;;
60225;SDS011;46090;48.436;11.410;2022-12-10T13:18:06;11.75;;;2.83;;
60225;SDS011;46090;48.436;11.410;2022-12-10T13:20:51;11.30;;;2.25;;
60225;SDS011;46090;48.436;11.410;2022-12-10T13:24:05;11.52;;;2.80;;
60225;SDS011;46090;48.436;11.410;2022-12-10T13:26:41;13.02;;;2.53;;
60225;SDS011;46090;48.436;11.410;2022-12-10T13:29:28;19.63;;;2.90;;
60225;SDS011;46090;48.436;11.410;2022-12-10T13:32:20;15.15;;;2.50;;
60225;SDS011;46090;48.436;11.410;2022-12-10T13:46:28;19.73;;;3.67;;
60225;SDS011;46090;48.436;11.410;2022-12-10T13:49:02;17.08;;;4.35;;
60225;SDS011;46090;48.436;11.410;2022-12-10T13:51:43;18.75;;;7.90;;
60225;SDS011;46090;48.436;11.410;2022-12-10T13:56:55;8.45;;;2.97;;
60225;SDS011;46090;48.436;11.410;2022-12-10T14:05:25;7.38;;;3.17;;
60225;SDS011;46090;48.436;11.410;2022-12-10T14:08:30;12.48;;;3.10;;
60225;SDS011;46090;48.436;11.410;2022-12-10T14:11:01;10.10;;;2.83;;
60225;SDS011;46090;48.436;11.410;2022-12-10T14:13:34;10.95;;;2.90;;
60225;SDS011;46090;48.436;11.410;2022-12-10T14:16:03;8.65;;;2.42;;
60225;SDS011;46090;48.436;11.410;2022-12-10T14:18:32;9.70;;;2.75;;
60225;SDS011;46090;48.436;11.410;2022-12-10T14:21:01;14.05;;;3.88;;
60225;SDS011;46090;48.436;11.410;2022-12-10T14:23:30;12.90;;;3.03;;
60225;SDS011;46090;48.436;11.410;2022-12-10T14:28:44;11.57;;;3.13;;
60225;SDS011;46090;48.436;11.410;2022-12-10T14:31:17;8.75;;;3.05;;
60225;SDS011;46090;48.436;11.410;2022-12-10T14:33:46;9.15;;;2.80;;
60225;SDS011;46090;48.436;11.410;2022-12-10T14:36:14;6.43;;;2.30;;
60225;SDS011;46090;48.436;11.410;2022-12-10T14:38:43;9.23;;;2.88;;
60225;SDS011;46090;48.436;11.410;2022-12-10T14:41:11;11.18;;;2.67;;
60225;SDS011;46090;48.436;11.410;2022-12-10T14:43:41;7.25;;;2.20;;
60225;SDS011;46090;48.436;11.410;2022-12-10T14:46:13;13.40;;;2.65;;
60225;SDS011;46090;48.436;11.410;2022-12-10T14:48:52;13.25;;;3.35;;
60225;SDS011;46090;48.436;11.410;2022-12-10T14:51:20;11.73;;;2.75;;
60225;SDS011;46090;48.436;11.410;2022-12-10T14:53:49;6.53;;;2.60;;
60225;SDS011;46090;48.436;11.410;2022-12-10T14:56:20;9.73;;;2.40;;
60225;SDS011;46090;48.436;11.410;2022-12-10T14:58:52;7.65;;;2.33;;
60225;SDS011;46090;48.436;11.410;2022-12-10T15:01:28;9.02;;;2.70;;
60225;SDS011;46090;48.436;11.410;2022-12-10T15:04:00;10.43;;;2.40;;
60225;SDS011;46090;48.436;11.410;2022-12-10T15:06:28;8.18;;;2.38;;
60225;SDS011;46090;48.436;11.410;2022-12-10T15:09:00;10.25;;;3.03;;
60225;SDS011;46090;48.436;11.410;2022-12-10T15:11:27;10.18;;;3.53;;
60225;SDS011;46090;48.436;11.410;2022-12-10T15:13:59;11.18;;;3.15;;
60225;SDS011;46090;48.436;11.410;2022-12-10T15:19:08;7.53;;;2.42;;
60225;SDS011;46090;48.436;11.410;2022-12-10T15:21:40;5.90;;;2.42;;
60225;SDS011;46090;48.436;11.410;2022-12-10T15:24:14;8.32;;;2.10;;
60225;SDS011;46090;48.436;11.410;2022-12-10T15:26:51;7.32;;;2.47;;
60225;SDS011;46090;48.436;11.410;2022-12-10T15:31:57;8.15;;;2.63;;
60225;SDS011;46090;48.436;11.410;2022-12-10T15:34:34;5.47;;;2.00;;
60225;SDS011;46090;48.436;11.410;2022-12-10T15:37:05;5.22;;;2.00;;
60225;SDS011;46090;48.436;11.410;2022-12-10T15:39:44;6.55;;;2.22;;
60225;SDS011;46090;48.436;11.410;2022-12-10T15:42:27;7.25;;;2.30;;
60225;SDS011;46090;48.436;11.410;2022-12-10T15:45:15;6.70;;;2.28;;
60225;SDS011;46090;48.436;11.410;2022-12-10T15:47:48;6.70;;;2.28;;
60225;SDS011;46090;48.436;11.410;2022-12-10T15:50:15;7.47;;;2.35;;
60225;SDS011;46090;48.436;11.410;2022-12-10T15:52:42;7.43;;;1.92;;
60225;SDS011;46090;48.436;11.410;2022-12-10T15:55:11;8.05;;;2.30;;
60225;SDS011;46090;48.436;11.410;2022-12-10T15:57:39;6.65;;;1.75;;
60225;SDS011;46090;48.436;11.410;2022-12-10T16:00:21;6.28;;;2.05;;
60225;SDS011;46090;48.436;11.410;2022-12-10T16:02:57;7.22;;;2.20;;
60225;SDS011;46090;48.436;11.410;2022-12-10T16:05:34;4.68;;;1.75;;
60225;SDS011;46090;48.436;11.410;2022-12-10T16:08:24;5.97;;;1.75;;
60225;SDS011;46090;48.436;11.410;2022-12-10T16:10:54;6.05;;;2.38;;
60225;SDS011;46090;48.436;11.410;2022-12-10T16:13:30;6.10;;;2.10;;
60225;SDS011;46090;48.436;11.410;2022-12-10T16:16:00;9.45;;;2.13;;
60225;SDS011;46090;48.436;11.410;2022-12-10T16:18:29;6.80;;;2.22;;
60225;SDS011;46090;48.436;11.410;2022-12-10T16:21:00;12.27;;;2.13;;
60225;SDS011;46090;48.436;11.410;2022-12-10T16:23:27;7.40;;;1.63;;
60225;SDS011;46090;48.436;11.410;2022-12-10T16:25:54;7.57;;;1.88;;
60225;SDS011;46090;48.436;11.410;2022-12-10T16:28:21;6.57;;;1.92;;
60225;SDS011;46090;48.436;11.410;2022-12-10T16:30:55;6.63;;;1.80;;
60225;SDS011;46090;48.436;11.410;2022-12-10T16:33:24;5.43;;;1.63;;
60225;SDS011;46090;48.436;11.410;2022-12-10T16:35:52;5.97;;;2.05;;
60225;SDS011;46090;48.436;11.410;2022-12-10T16:38:20;5.20;;;2.30;;
60225;SDS011;46090;48.436;11.410;2022-12-10T16:40:47;5.38;;;2.10;;